Time;durP1;ratioP1;P1;durP2;ratioP2;P2;SDS_P1;SDS_P2;PMS_P1;PMS_P2;Temp;Humidity;BMP_temperature;BMP_pressure;BME280_temperature;BME280_humidity;BME280_pressure;Samples;Min_cycle;Max_cycle;Signal;HPM_P1;HPM_P2
2022/11/13 09:59:06;;;;;;;;;;;21.90;89.40;;;;;;6098051;23;19921;-65
2022/11/13 10:01:33;;;;;;;;;;;21.90;89.90;;;;;;6071683;23;19917;-64
2022/11/13 10:04:00;;;;;;;;;;;21.80;89.70;;;;;;6071805;23;19956;-65
2022/11/13 10:06:39;;;;;;;;;;;21.80;90.10;;;;;;6072332;23;19932;-64
2022/11/13 10:09:12;;;;;;;;;;;21.70;90.30;;;;;;6071369;23;20250;-64
2022/11/13 10:11:39;;;;;;;;;;;21.70;90.50;;;;;;6097213;23;19914;-65
2022/11/13 10:14:28;;;;;;;;;;;21.70;91.30;;;;;;6097640;23;19909;-64
2022/11/13 10:17:22;;;;;;;;;;;21.60;91.00;;;;;;6082425;23;19906;-64
2022/11/13 10:19:52;;;;;;;;;;;21.60;91.20;;;;;;6092714;23;20325;-64
2022/11/13 10:22:30;;;;;;;;;;;21.60;91.30;;;;;;6097272;23;19913;-64
2022/11/13 10:25:02;;;;;;;;;;;21.50;91.10;;;;;;6071684;23;20214;-64
2022/11/13 10:27:29;;;;;;;;;;;21.50;91.10;;;;;;6097540;23;19909;-64
2022/11/13 10:29:56;;;;;;;;;;;21.50;90.90;;;;;;6097155;23;19910;-64
2022/11/13 10:32:23;;;;;;;;;;;21.50;90.90;;;;;;6071721;23;19912;-64
2022/11/13 10:34:54;;;;;;;;;;;21.40;90.90;;;;;;6096944;23;19905;-65
2022/11/13 10:37:29;;;;;;;;;;;21.50;90.80;;;;;;6072124;23;19913;-64
2022/11/13 10:39:56;;;;;;;;;;;21.50;91.00;;;;;;6097183;23;19909;-64
2022/11/13 10:42:24;;;;;;;;;;;21.40;90.80;;;;;;6096896;23;19913;-64
2022/11/13 10:44:54;;;;;;;;;;;21.40;90.80;;;;;;6097269;23;20244;-64
2022/11/13 10:47:22;;;;;;;;;;;21.50;90.90;;;;;;6071823;23;19956;-64
2022/11/13 10:49:48;;;;;;;;;;;21.40;91.30;;;;;;6071554;23;20244;-64
2022/11/13 10:52:19;;;;;;;;;;;21.50;91.00;;;;;;6097013;23;20392;-64
2022/11/13 10:54:46;;;;;;;;;;;21.50;91.10;;;;;;6097224;23;19906;-65
2022/11/13 10:57:24;;;;;;;;;;;21.50;91.00;;;;;;6103864;23;19936;-65
2022/11/13 10:59:51;;;;;;;;;;;21.50;90.90;;;;;;6126323;23;19996;-65
2022/11/13 11:02:18;;;;;;;;;;;21.50;91.00;;;;;;6125970;23;19913;-65
2022/11/13 11:04:45;;;;;;;;;;;21.50;90.90;;;;;;6126202;23;19909;-64
2022/11/13 11:07:15;;;;;;;;;;;21.60;90.60;;;;;;6126158;23;19905;-64
2022/11/13 11:09:48;;;;;;;;;;;21.60;90.70;;;;;;6100250;23;19936;-65
2022/11/13 11:12:18;;;;;;;;;;;21.50;90.60;;;;;;6101386;23;19960;-65
2022/11/13 11:14:59;;;;;;;;;;;21.60;90.20;;;;;;6125032;23;19909;-65
2022/11/13 11:17:31;;;;;;;;;;;21.60;90.00;;;;;;6125998;23;19932;-64
2022/11/13 11:20:00;;;;;;;;;;;21.60;90.20;;;;;;6126175;23;19988;-64
2022/11/13 11:22:29;;;;;;;;;;;21.60;90.50;;;;;;6126628;23;19941;-65
2022/11/13 11:25:16;;;;;;;;;;;21.60;90.60;;;;;;6100097;23;19917;-65
2022/11/13 11:27:45;;;;;;;;;;;21.60;90.60;;;;;;6125625;23;20236;-65
2022/11/13 11:30:18;;;;;;;;;;;21.60;90.50;;;;;;6099996;23;19905;-65
2022/11/13 11:33:11;;;;;;;;;;;21.60;90.70;;;;;;6125871;23;19909;-65
2022/11/13 11:35:40;;;;;;;;;;;21.60;90.80;;;;;;6120544;23;19971;-65
2022/11/13 11:38:10;;;;;;;;;;;21.50;90.70;;;;;;6125939;23;20320;-65
2022/11/13 11:40:40;;;;;;;;;;;21.50;91.20;;;;;;6125998;23;19934;-65
2022/11/13 11:43:13;;;;;;;;;;;21.50;91.20;;;;;;6100043;23;19955;-65
2022/11/13 11:45:47;;;;;;;;;;;21.50;91.30;;;;;;6125569;23;19913;-65
2022/11/13 11:48:18;;;;;;;;;;;21.50;91.10;;;;;;6096635;23;19909;-65
2022/11/13 11:50:53;;;;;;;;;;;21.50;91.10;;;;;;6099922;23;19960;-65
2022/11/13 11:53:20;;;;;;;;;;;21.50;91.20;;;;;;6125549;23;19913;-65
2022/11/13 11:55:54;;;;;;;;;;;21.50;91.30;;;;;;6125337;23;19905;-65
2022/11/13 11:58:20;;;;;;;;;;;21.50;91.40;;;;;;6099122;23;19916;-65
2022/11/13 12:00:50;;;;;;;;;;;21.50;91.40;;;;;;6125040;23;19905;-65
2022/11/13 12:03:29;;;;;;;;;;;21.50;91.30;;;;;;6125534;23;19913;-65
2022/11/13 12:06:02;;;;;;;;;;;21.50;91.40;;;;;;6125625;23;19905;-65
2022/11/13 12:08:29;;;;;;;;;;;21.50;91.40;;;;;;6125785;23;19912;-65
2022/11/13 12:11:01;;;;;;;;;;;21.50;91.20;;;;;;6125237;23;19905;-65
2022/11/13 12:13:28;;;;;;;;;;;21.50;91.00;;;;;;6099991;23;19937;-65
2022/11/13 12:16:00;;;;;;;;;;;21.50;90.90;;;;;;6125824;23;20378;-65
2022/11/13 12:18:42;;;;;;;;;;;21.50;91.00;;;;;;6125515;23;19909;-65
2022/11/13 12:21:08;;;;;;;;;;;21.40;90.60;;;;;;6098385;23;19937;-65
2022/11/13 12:23:35;;;;;;;;;;;21.40;90.70;;;;;;6124032;23;19920;-66
2022/11/13 12:26:04;;;;;;;;;;;21.50;90.60;;;;;;6124891;23;19909;-66
2022/11/13 12:28:49;;;;;;;;;;;21.50;90.40;;;;;;6124831;23;19909;-65
2022/11/13 12:31:21;;;;;;;;;;;21.50;90.40;;;;;;6125072;23;19905;-65
2022/11/13 12:34:03;;;;;;;;;;;21.50;90.30;;;;;;6125701;23;19904;-65
2022/11/13 12:36:30;;;;;;;;;;;21.50;90.50;;;;;;6125417;23;19916;-65
2022/11/13 12:39:16;;;;;;;;;;;21.50;90.40;;;;;;6125130;23;20324;-65
2022/11/13 12:41:46;;;;;;;;;;;21.50;90.10;;;;;;6075630;23;19916;-65
2022/11/13 12:44:19;;;;;;;;;;;21.50;90.30;;;;;;6125284;23;20236;-65
2022/11/13 12:46:47;;;;;;;;;;;21.50;90.10;;;;;;6098856;23;19908;-65
2022/11/13 12:49:33;;;;;;;;;;;21.40;90.30;;;;;;6099698;23;19996;-65
2022/11/13 12:52:04;;;;;;;;;;;21.40;90.50;;;;;;6125113;23;19912;-65
2022/11/13 12:54:33;;;;;;;;;;;21.40;91.00;;;;;;6099599;23;19909;-65
2022/11/13 12:57:29;;;;;;;;;;;21.30;90.90;;;;;;6099296;23;19947;-66
2022/11/13 12:59:56;;;;;;;;;;;21.30;91.00;;;;;;6100683;23;19980;-65
2022/11/13 13:02:40;;;;;;;;;;;21.30;91.80;;;;;;6099951;23;19917;-65
2022/11/13 13:05:13;;;;;;;;;;;21.20;92.60;;;;;;6125876;23;19909;-66
2022/11/13 13:07:40;;;;;;;;;;;21.10;93.00;;;;;;6099946;23;19956;-66
2022/11/13 13:10:24;;;;;;;;;;;21.00;93.30;;;;;;6125693;23;19905;-66
2022/11/13 13:13:11;;;;;;;;;;;20.90;93.70;;;;;;6126918;23;20232;-66
2022/11/13 13:23:48;;;;;;;;;;;20.80;94.50;;;;;;6111977;23;19923;-66
2022/11/13 13:26:22;;;;;;;;;;;20.80;94.50;;;;;;6101184;23;19920;-66
2022/11/13 13:28:52;;;;;;;;;;;20.80;94.60;;;;;;6101467;23;20232;-66
2022/11/13 13:31:29;;;;;;;;;;;20.80;94.80;;;;;;6101302;23;19905;-66
2022/11/13 13:33:55;;;;;;;;;;;20.80;94.90;;;;;;6100780;23;19932;-66
2022/11/13 13:36:25;;;;;;;;;;;20.70;94.90;;;;;;6101247;23;19904;-66
2022/11/13 13:39:18;;;;;;;;;;;20.70;94.90;;;;;;6101159;23;19905;-65
2022/11/13 13:42:04;;;;;;;;;;;20.70;95.00;;;;;;6082000;23;19998;-66
2022/11/13 13:44:34;;;;;;;;;;;20.80;95.10;;;;;;6080980;23;20240;-66
2022/11/13 13:47:02;;;;;;;;;;;20.70;95.10;;;;;;6101430;23;20348;-66
2022/11/13 13:49:29;;;;;;;;;;;20.80;95.10;;;;;;6101328;23;20321;-66
2022/11/13 13:51:56;;;;;;;;;;;20.80;95.20;;;;;;6101151;23;19936;-66
2022/11/13 13:54:26;;;;;;;;;;;20.70;95.20;;;;;;6127445;23;19976;-66
2022/11/13 13:56:53;;;;;;;;;;;20.80;95.30;;;;;;6101484;23;20355;-66
2022/11/13 13:59:21;;;;;;;;;;;20.70;94.90;;;;;;6100988;23;19912;-66
2022/11/13 14:01:54;;;;;;;;;;;20.70;95.00;;;;;;6100911;23;19909;-66
2022/11/13 14:04:22;;;;;;;;;;;20.70;94.70;;;;;;6101133;23;20347;-65
2022/11/13 14:06:53;;;;;;;;;;;20.70;94.80;;;;;;6127012;23;19933;-65
2022/11/13 14:09:23;;;;;;;;;;;20.60;94.90;;;;;;6101154;23;19905;-65
2022/11/13 14:12:10;;;;;;;;;;;20.60;94.90;;;;;;6126692;23;19912;-65
2022/11/13 14:14:38;;;;;;;;;;;20.60;95.00;;;;;;6125362;23;19927;-65
2022/11/13 14:17:05;;;;;;;;;;;20.60;95.10;;;;;;6101434;23;19912;-65
2022/11/13 14:19:32;;;;;;;;;;;20.50;95.00;;;;;;6126534;23;20430;-64
2022/11/13 14:21:59;;;;;;;;;;;20.50;95.00;;;;;;6126334;23;19919;-64
2022/11/13 14:24:34;;;;;;;;;;;20.50;95.10;;;;;;6100293;23;19925;-65
2022/11/13 14:27:10;;;;;;;;;;;20.40;95.30;;;;;;6127050;23;20031;-66
2022/11/13 14:29:38;;;;;;;;;;;20.50;95.60;;;;;;6100905;23;19912;-66
2022/11/13 14:32:23;;;;;;;;;;;20.50;96.30;;;;;;6126694;23;20210;-67
2022/11/13 14:34:51;;;;;;;;;;;20.30;96.30;;;;;;6125864;23;19909;-68
2022/11/13 14:37:27;;;;;;;;;;;20.20;96.60;;;;;;6126062;23;19905;-68
2022/11/13 14:39:54;;;;;;;;;;;20.00;96.50;;;;;;6126340;23;19909;-68
2022/11/13 14:42:22;;;;;;;;;;;20.00;96.80;;;;;;6100557;23;19913;-69
2022/11/13 14:44:49;;;;;;;;;;;19.90;97.00;;;;;;6100292;23;19909;-69
2022/11/13 14:47:25;;;;;;;;;;;19.90;97.10;;;;;;6125941;23;19976;-68
2022/11/13 14:49:52;;;;;;;;;;;19.80;97.20;;;;;;6126424;23;19905;-68
2022/11/13 14:52:19;;;;;;;;;;;19.90;97.30;;;;;;6126027;23;20297;-68
2022/11/13 14:54:46;;;;;;;;;;;19.90;97.30;;;;;;6126846;23;19905;-69
2022/11/13 14:57:13;;;;;;;;;;;19.90;97.40;;;;;;6126097;23;19909;-68
2022/11/13 14:59:43;;;;;;;;;;;19.90;97.40;;;;;;6126277;23;19960;-69
2022/11/13 15:02:10;;;;;;;;;;;19.90;97.40;;;;;;6101508;23;19909;-68
2022/11/13 15:04:36;;;;;;;;;;;19.90;97.50;;;;;;6126450;23;19909;-68
2022/11/13 15:07:17;;;;;;;;;;;19.90;97.50;;;;;;6125574;23;19905;-68
2022/11/13 15:09:44;;;;;;;;;;;19.90;97.60;;;;;;6125834;23;20373;-67
2022/11/13 15:12:11;;;;;;;;;;;19.80;97.60;;;;;;6125782;23;19944;-68
2022/11/13 15:14:38;;;;;;;;;;;19.70;97.50;;;;;;6100606;23;19905;-68
2022/11/13 15:17:05;;;;;;;;;;;19.80;97.60;;;;;;6076070;23;20316;-68
2022/11/13 15:19:35;;;;;;;;;;;19.70;97.50;;;;;;6124463;23;20043;-68
2022/11/13 15:22:02;;;;;;;;;;;19.60;97.50;;;;;;6100404;23;20325;-69
2022/11/13 15:24:28;;;;;;;;;;;19.50;97.50;;;;;;6125584;23;19917;-68
2022/11/13 15:26:55;;;;;;;;;;;19.40;97.50;;;;;;6125787;23;20013;-68
2022/11/13 15:29:21;;;;;;;;;;;19.40;97.70;;;;;;6125465;23;19912;-68
2022/11/13 15:31:48;;;;;;;;;;;19.40;97.50;;;;;;6125689;23;19905;-68
2022/11/13 15:34:15;;;;;;;;;;;19.30;97.60;;;;;;6125119;23;19905;-68
2022/11/13 15:36:41;;;;;;;;;;;19.30;97.60;;;;;;6125445;23;19904;-68
2022/11/13 15:39:08;;;;;;;;;;;19.30;97.60;;;;;;6125912;23;19928;-68
2022/11/13 15:41:35;;;;;;;;;;;19.30;97.70;;;;;;6125851;23;19908;-69
2022/11/13 15:44:02;;;;;;;;;;;19.30;97.70;;;;;;6125551;23;19912;-68
2022/11/13 15:46:28;;;;;;;;;;;19.30;97.70;;;;;;6125509;23;19916;-67
2022/11/13 15:48:55;;;;;;;;;;;19.20;97.70;;;;;;6125355;23;20312;-67
2022/11/13 15:51:22;;;;;;;;;;;19.20;97.70;;;;;;6125425;23;19905;-67
2022/11/13 15:54:03;;;;;;;;;;;19.20;97.70;;;;;;6125579;23;20343;-67
2022/11/13 15:56:29;;;;;;;;;;;19.20;97.80;;;;;;6099810;23;19912;-67
2022/11/13 15:58:56;;;;;;;;;;;19.20;97.80;;;;;;6100099;23;19905;-68
2022/11/13 16:01:22;;;;;;;;;;;19.20;97.80;;;;;;6125368;23;19905;-68
2022/11/13 16:03:49;;;;;;;;;;;19.20;97.70;;;;;;6125635;23;19916;-68
2022/11/13 16:06:20;;;;;;;;;;;19.20;97.70;;;;;;6125606;23;20339;-68
2022/11/13 16:08:47;;;;;;;;;;;19.20;97.80;;;;;;6125731;23;19944;-67
2022/11/13 16:11:14;;;;;;;;;;;19.20;97.60;;;;;;6125583;23;20252;-67
2022/11/13 16:13:40;;;;;;;;;;;19.00;97.60;;;;;;6125546;23;19909;-68
2022/11/13 16:16:08;;;;;;;;;;;19.00;97.70;;;;;;6125253;23;19956;-67
2022/11/13 16:18:35;;;;;;;;;;;19.00;97.70;;;;;;6099649;23;19931;-68
2022/11/13 16:21:01;;;;;;;;;;;19.00;97.70;;;;;;6100021;23;20368;-68
2022/11/13 16:23:28;;;;;;;;;;;19.10;97.80;;;;;;6125185;23;19923;-68
2022/11/13 16:25:55;;;;;;;;;;;19.10;97.80;;;;;;6125621;23;19975;-69
2022/11/13 16:28:21;;;;;;;;;;;19.10;97.80;;;;;;6125408;23;19905;-69
2022/11/13 16:30:48;;;;;;;;;;;19.10;97.90;;;;;;6125416;23;19940;-66
2022/11/13 16:33:14;;;;;;;;;;;19.00;97.70;;;;;;6125010;23;19905;-67
2022/11/13 16:35:41;;;;;;;;;;;19.00;97.80;;;;;;6125178;23;19916;-67
2022/11/13 16:38:11;;;;;;;;;;;19.00;97.90;;;;;;6125270;23;20231;-68
2022/11/13 16:40:42;;;;;;;;;;;19.10;97.90;;;;;;6099406;23;19940;-68
2022/11/13 16:43:09;;;;;;;;;;;19.00;97.90;;;;;;6125458;23;19913;-68
2022/11/13 16:45:37;;;;;;;;;;;19.00;97.90;;;;;;6099668;23;19982;-68
2022/11/13 16:48:04;;;;;;;;;;;19.00;97.90;;;;;;6102514;23;19909;-68
2022/11/13 16:50:31;;;;;;;;;;;19.00;97.90;;;;;;6128352;23;20003;-68
2022/11/13 16:52:58;;;;;;;;;;;19.00;97.90;;;;;;6128337;23;19905;-68
2022/11/13 16:55:25;;;;;;;;;;;19.00;97.90;;;;;;6128583;23;19940;-68
2022/11/13 16:57:51;;;;;;;;;;;19.00;97.90;;;;;;6128875;23;19932;-68
2022/11/13 17:00:18;;;;;;;;;;;18.90;98.00;;;;;;6128763;23;19944;-69
2022/11/13 17:02:45;;;;;;;;;;;18.90;98.00;;;;;;6128537;23;19940;-69
2022/11/13 17:05:15;;;;;;;;;;;18.90;98.00;;;;;;6127978;23;19905;-68
2022/11/13 17:07:42;;;;;;;;;;;18.90;98.00;;;;;;6128180;23;19909;-68
2022/11/13 17:10:15;;;;;;;;;;;18.90;98.00;;;;;;6128169;23;19932;-68
2022/11/13 17:12:41;;;;;;;;;;;18.90;98.00;;;;;;6128520;23;19912;-68
2022/11/13 17:15:08;;;;;;;;;;;18.80;98.00;;;;;;6102755;23;19911;-68
2022/11/13 17:17:35;;;;;;;;;;;18.80;98.00;;;;;;6102011;23;19905;-68
2022/11/13 17:20:01;;;;;;;;;;;18.90;98.00;;;;;;6101993;23;19928;-69
2022/11/13 17:22:28;;;;;;;;;;;18.90;98.00;;;;;;6127913;23;19913;-69
2022/11/13 17:24:55;;;;;;;;;;;19.00;98.00;;;;;;6128058;23;19913;-69
2022/11/13 17:27:21;;;;;;;;;;;19.00;98.00;;;;;;6128729;23;19912;-69
2022/11/13 17:29:48;;;;;;;;;;;18.90;98.00;;;;;;6127564;23;19905;-66
2022/11/13 17:32:15;;;;;;;;;;;18.90;98.00;;;;;;6128205;23;19908;-66
2022/11/13 17:34:42;;;;;;;;;;;18.90;98.10;;;;;;6128683;23;19909;-68
2022/11/13 17:37:09;;;;;;;;;;;19.00;98.10;;;;;;6128165;23;20268;-67
2022/11/13 17:39:35;;;;;;;;;;;19.00;98.10;;;;;;6128188;23;19912;-69
2022/11/13 17:42:02;;;;;;;;;;;19.00;98.10;;;;;;6128206;23;20312;-69
2022/11/13 17:44:29;;;;;;;;;;;19.00;98.10;;;;;;6126820;23;19909;-69
2022/11/13 17:46:55;;;;;;;;;;;18.90;98.10;;;;;;6101074;23;19905;-71
2022/11/13 17:49:22;;;;;;;;;;;19.00;98.20;;;;;;6127406;23;19931;-70
2022/11/13 17:51:48;;;;;;;;;;;19.00;98.20;;;;;;6127472;23;20014;-70
2022/11/13 17:54:15;;;;;;;;;;;19.10;98.30;;;;;;6127657;23;19916;-70
2022/11/13 17:56:42;;;;;;;;;;;19.10;98.20;;;;;;6127979;23;19911;-69
2022/11/13 17:59:10;;;;;;;;;;;19.20;98.30;;;;;;6126110;23;19988;-70
2022/11/13 18:01:36;;;;;;;;;;;19.10;98.20;;;;;;6125955;23;19933;-70
2022/11/13 18:04:03;;;;;;;;;;;19.10;98.30;;;;;;6126026;23;19913;-70
2022/11/13 18:06:29;;;;;;;;;;;19.20;98.30;;;;;;6125676;23;19909;-70
2022/11/13 18:08:56;;;;;;;;;;;19.20;98.30;;;;;;6125991;23;19905;-70
2022/11/13 18:11:23;;;;;;;;;;;19.20;98.30;;;;;;6126117;23;19905;-70
2022/11/13 18:13:50;;;;;;;;;;;19.20;98.30;;;;;;6125284;23;19980;-66
2022/11/13 18:16:28;;;;;;;;;;;19.20;98.30;;;;;;6126711;23;19905;-67
2022/11/13 18:18:55;;;;;;;;;;;19.20;98.30;;;;;;6126799;23;19955;-66
2022/11/13 18:21:22;;;;;;;;;;;19.20;98.30;;;;;;6100371;23;19911;-66
2022/11/13 18:24:16;;;;;;;;;;;19.20;98.30;;;;;;6100321;23;20248;-67
2022/11/13 18:26:43;;;;;;;;;;;19.20;98.30;;;;;;6121099;23;19915;-66
2022/11/13 18:29:09;;;;;;;;;;;19.20;98.30;;;;;;6100693;23;19929;-67
2022/11/13 18:31:36;;;;;;;;;;;19.20;98.40;;;;;;6126181;23;19948;-66
2022/11/13 18:34:03;;;;;;;;;;;19.20;98.40;;;;;;6126466;23;20250;-67
2022/11/13 18:36:34;;;;;;;;;;;19.30;98.40;;;;;;6126532;23;19969;-66
2022/11/13 18:39:01;;;;;;;;;;;19.30;98.40;;;;;;6100672;23;20376;-66
2022/11/13 18:41:28;;;;;;;;;;;19.30;98.40;;;;;;6100713;23;19955;-67
2022/11/13 18:43:55;;;;;;;;;;;19.30;98.40;;;;;;6100862;23;19905;-67
2022/11/13 18:46:21;;;;;;;;;;;19.30;98.40;;;;;;6126282;23;20221;-67
2022/11/13 18:48:48;;;;;;;;;;;19.30;98.40;;;;;;6126472;23;20221;-67
2022/11/13 18:51:16;;;;;;;;;;;19.20;98.40;;;;;;6100320;23;19905;-67
2022/11/13 18:53:44;;;;;;;;;;;19.20;98.40;;;;;;6126126;23;19958;-66
2022/11/13 18:56:15;;;;;;;;;;;19.30;98.40;;;;;;6076499;23;20255;-66
2022/11/13 18:58:42;;;;;;;;;;;19.30;98.40;;;;;;6100309;23;19964;-66
2022/11/13 19:01:08;;;;;;;;;;;19.30;98.40;;;;;;6100200;23;19909;-66
2022/11/13 19:03:35;;;;;;;;;;;19.30;98.40;;;;;;6125682;23;20351;-66
2022/11/13 19:06:02;;;;;;;;;;;19.30;98.40;;;;;;6125902;23;19905;-66
2022/11/13 19:08:28;;;;;;;;;;;19.30;98.40;;;;;;6100126;23;20225;-66
2022/11/13 19:10:55;;;;;;;;;;;19.30;98.40;;;;;;6126035;23;19908;-68
2022/11/13 19:13:22;;;;;;;;;;;19.20;98.30;;;;;;6126091;23;19905;-68
2022/11/13 19:15:49;;;;;;;;;;;19.20;98.40;;;;;;6126010;23;20244;-68
2022/11/13 19:18:16;;;;;;;;;;;19.20;98.40;;;;;;6099593;23;19905;-68
2022/11/13 19:20:42;;;;;;;;;;;19.20;98.30;;;;;;6126081;23;19905;-68
2022/11/13 19:23:09;;;;;;;;;;;19.20;98.30;;;;;;6125800;23;20348;-68
2022/11/13 19:25:35;;;;;;;;;;;19.20;98.30;;;;;;6125900;23;19905;-68
2022/11/13 19:28:02;;;;;;;;;;;19.20;98.30;;;;;;6126032;23;19905;-68
2022/11/13 19:30:29;;;;;;;;;;;19.20;98.40;;;;;;6100265;23;19984;-68
2022/11/13 19:32:55;;;;;;;;;;;19.20;98.30;;;;;;6125910;23;20287;-68
2022/11/13 19:35:22;;;;;;;;;;;19.30;98.30;;;;;;6125786;23;19905;-68
2022/11/13 19:37:54;;;;;;;;;;;19.30;98.30;;;;;;6100041;23;19905;-68
2022/11/13 19:40:21;;;;;;;;;;;19.30;98.30;;;;;;6100076;23;20272;-68
2022/11/13 19:42:47;;;;;;;;;;;19.20;98.30;;;;;;6099663;23;20244;-67
2022/11/13 19:45:14;;;;;;;;;;;19.30;98.30;;;;;;6125730;23;19905;-68
2022/11/13 19:47:40;;;;;;;;;;;19.30;98.30;;;;;;6099546;23;19940;-68
2022/11/13 19:50:09;;;;;;;;;;;19.30;98.30;;;;;;6125615;23;19988;-68
2022/11/13 19:52:35;;;;;;;;;;;19.30;98.30;;;;;;6100497;23;19905;-69
2022/11/13 19:55:02;;;;;;;;;;;19.30;98.30;;;;;;6125769;23;19905;-70
2022/11/13 19:57:29;;;;;;;;;;;19.40;98.30;;;;;;6100136;23;20336;-69
2022/11/13 19:59:55;;;;;;;;;;;19.40;98.30;;;;;;6125496;23;19973;-70
2022/11/13 20:02:23;;;;;;;;;;;19.40;98.30;;;;;;6125328;23;20249;-69
2022/11/13 20:04:49;;;;;;;;;;;19.30;98.20;;;;;;6125525;23;19957;-69
2022/11/13 20:07:16;;;;;;;;;;;19.40;98.30;;;;;;6125649;23;19904;-70
2022/11/13 20:09:42;;;;;;;;;;;19.40;98.30;;;;;;6125398;23;19905;-70
2022/11/13 20:12:09;;;;;;;;;;;19.30;98.20;;;;;;6125198;23;19960;-70
2022/11/13 20:14:36;;;;;;;;;;;19.30;98.00;;;;;;6125424;23;20268;-71
2022/11/13 20:17:02;;;;;;;;;;;19.30;98.10;;;;;;6126023;23;19908;-70
2022/11/13 20:19:29;;;;;;;;;;;19.20;98.00;;;;;;6125615;23;19909;-69
2022/11/13 20:21:55;;;;;;;;;;;19.10;97.90;;;;;;6125275;23;20336;-69
2022/11/13 20:24:22;;;;;;;;;;;19.10;97.80;;;;;;6099465;23;19947;-69
2022/11/13 20:26:49;;;;;;;;;;;19.00;97.80;;;;;;6125072;23;19905;-69
2022/11/13 20:29:15;;;;;;;;;;;18.90;97.40;;;;;;6125110;23;19936;-69
2022/11/13 20:31:42;;;;;;;;;;;18.80;97.30;;;;;;6125191;23;19952;-69
2022/11/13 20:34:09;;;;;;;;;;;18.70;97.10;;;;;;6125100;23;19912;-69
2022/11/13 20:36:35;;;;;;;;;;;18.70;97.00;;;;;;6125034;23;19905;-70
2022/11/13 20:39:02;;;;;;;;;;;18.60;96.80;;;;;;6125361;23;19909;-70
2022/11/13 20:41:28;;;;;;;;;;;18.60;96.80;;;;;;6125394;23;19928;-70
2022/11/13 20:44:00;;;;;;;;;;;18.60;96.70;;;;;;6125665;23;20312;-70
2022/11/13 20:46:27;;;;;;;;;;;18.50;96.50;;;;;;6076188;23;19951;-70
2022/11/13 20:48:53;;;;;;;;;;;18.40;96.20;;;;;;6099338;23;19905;-70
2022/11/13 20:51:21;;;;;;;;;;;18.40;96.00;;;;;;6125845;23;19920;-70
2022/11/13 20:53:48;;;;;;;;;;;18.50;96.30;;;;;;6099648;23;20363;-71
2022/11/13 20:56:14;;;;;;;;;;;18.40;96.10;;;;;;6125420;23;19905;-70
2022/11/13 20:58:41;;;;;;;;;;;18.50;96.00;;;;;;6099255;23;19960;-70
2022/11/13 21:01:12;;;;;;;;;;;18.60;96.10;;;;;;6125341;23;19975;-71
2022/11/13 21:03:39;;;;;;;;;;;18.70;96.10;;;;;;6099676;23;19947;-71
2022/11/13 21:06:05;;;;;;;;;;;18.70;96.20;;;;;;6125347;23;19909;-71
2022/11/13 21:08:32;;;;;;;;;;;18.80;95.90;;;;;;6099630;23;19960;-71
2022/11/13 21:10:59;;;;;;;;;;;18.80;95.70;;;;;;6125254;23;20228;-71
2022/11/13 21:13:26;;;;;;;;;;;18.70;95.40;;;;;;6125143;23;19909;-70
2022/11/13 21:15:52;;;;;;;;;;;18.70;95.10;;;;;;6099163;23;19920;-70
2022/11/13 21:18:19;;;;;;;;;;;18.70;95.40;;;;;;6125191;23;19912;-70
2022/11/13 21:20:46;;;;;;;;;;;18.80;95.30;;;;;;6125114;23;20335;-70
2022/11/13 21:23:13;;;;;;;;;;;19.00;95.40;;;;;;6098840;23;19916;-69
2022/11/13 21:25:39;;;;;;;;;;;19.20;95.50;;;;;;6124918;23;19912;-70
2022/11/13 21:28:06;;;;;;;;;;;19.40;94.90;;;;;;6099469;23;19905;-70
2022/11/13 21:30:33;;;;;;;;;;;19.60;94.90;;;;;;6099646;23;19912;-70
2022/11/13 21:32:59;;;;;;;;;;;19.90;95.10;;;;;;6125095;23;19905;-70
2022/11/13 21:35:26;;;;;;;;;;;20.10;93.90;;;;;;6101073;23;19912;-70
2022/11/13 21:37:53;;;;;;;;;;;20.30;93.60;;;;;;6126469;23;19935;-68
2022/11/13 21:40:20;;;;;;;;;;;20.40;92.90;;;;;;6101625;23;19916;-71
2022/11/13 21:42:46;;;;;;;;;;;20.40;92.70;;;;;;6101092;23;19917;-71
2022/11/13 21:45:13;;;;;;;;;;;20.50;91.00;;;;;;6101356;23;19909;-71
2022/11/13 21:47:42;;;;;;;;;;;20.50;91.70;;;;;;6101042;23;19933;-70
2022/11/13 21:50:08;;;;;;;;;;;20.40;90.50;;;;;;6101426;23;19945;-70
2022/11/13 21:52:35;;;;;;;;;;;20.50;91.40;;;;;;6126773;23;19905;-71
2022/11/13 21:55:02;;;;;;;;;;;20.50;91.60;;;;;;6126656;23;19912;-71
2022/11/13 21:57:28;;;;;;;;;;;20.50;90.20;;;;;;6100773;23;19912;-71
2022/11/13 21:59:55;;;;;;;;;;;20.40;89.50;;;;;;6126494;23;19912;-71
2022/11/13 22:02:21;;;;;;;;;;;20.50;90.80;;;;;;6126770;23;19913;-71
2022/11/13 22:04:49;;;;;;;;;;;20.50;90.10;;;;;;6126663;23;19933;-71
2022/11/13 22:07:16;;;;;;;;;;;20.50;89.60;;;;;;6125400;23;19909;-71
2022/11/13 22:09:42;;;;;;;;;;;20.70;88.60;;;;;;6126454;23;20364;-71
2022/11/13 22:12:09;;;;;;;;;;;20.70;88.60;;;;;;6126768;23;19911;-70
2022/11/13 22:14:36;;;;;;;;;;;20.80;89.10;;;;;;6101117;23;19912;-70
2022/11/13 22:17:02;;;;;;;;;;;21.00;89.10;;;;;;6126689;23;19909;-70
2022/11/13 22:19:29;;;;;;;;;;;21.10;88.70;;;;;;6126251;23;19912;-70
2022/11/13 22:21:56;;;;;;;;;;;21.20;88.50;;;;;;6100576;23;19913;-70
2022/11/13 22:24:22;;;;;;;;;;;21.40;88.80;;;;;;6100730;23;19921;-70
2022/11/13 22:26:49;;;;;;;;;;;21.50;87.00;;;;;;6126287;23;19961;-70
2022/11/13 22:29:16;;;;;;;;;;;21.70;87.90;;;;;;6126235;23;19936;-70
2022/11/13 22:31:43;;;;;;;;;;;21.80;87.90;;;;;;6100231;23;20332;-70
2022/11/13 22:34:10;;;;;;;;;;;21.90;84.50;;;;;;6100657;23;20284;-70
2022/11/13 22:36:37;;;;;;;;;;;22.00;85.70;;;;;;6126691;23;19909;-70
2022/11/13 22:39:03;;;;;;;;;;;22.00;84.10;;;;;;6126044;23;20356;-67
2022/11/13 22:41:31;;;;;;;;;;;22.10;84.40;;;;;;6100320;23;19988;-67
2022/11/13 22:43:59;;;;;;;;;;;22.30;86.00;;;;;;6100130;23;20248;-67
2022/11/13 22:46:27;;;;;;;;;;;22.30;84.10;;;;;;6100368;23;19912;-67
2022/11/13 22:48:53;;;;;;;;;;;22.30;80.00;;;;;;6126078;23;19916;-67
2022/11/13 22:51:20;;;;;;;;;;;22.40;79.40;;;;;;6100381;23;20304;-67
2022/11/13 22:53:48;;;;;;;;;;;22.60;80.90;;;;;;6125975;23;19905;-69
2022/11/13 22:56:15;;;;;;;;;;;22.60;76.30;;;;;;6125896;23;19912;-68
2022/11/13 22:58:41;;;;;;;;;;;22.80;77.00;;;;;;6125516;23;19905;-68
2022/11/13 23:01:15;;;;;;;;;;;22.90;79.60;;;;;;6100140;23;20388;-68
2022/11/13 23:03:42;;;;;;;;;;;23.00;79.20;;;;;;6099942;23;19917;-68
2022/11/13 23:06:09;;;;;;;;;;;23.00;77.20;;;;;;6125767;23;19916;-68
2022/11/13 23:08:39;;;;;;;;;;;23.20;81.40;;;;;;6099866;23;19905;-68
2022/11/13 23:11:06;;;;;;;;;;;23.00;65.90;;;;;;6100667;23;19905;-68
2022/11/13 23:13:33;;;;;;;;;;;23.10;64.80;;;;;;6100283;23;19971;-68
2022/11/13 23:16:00;;;;;;;;;;;23.20;65.60;;;;;;6126172;23;20240;-69
2022/11/13 23:18:29;;;;;;;;;;;23.20;61.20;;;;;;6125523;23;19905;-69
2022/11/13 23:20:55;;;;;;;;;;;23.30;60.40;;;;;;6099945;23;19909;-68
2022/11/13 23:23:22;;;;;;;;;;;23.30;66.70;;;;;;6099440;23;19923;-68
2022/11/13 23:25:49;;;;;;;;;;;23.30;62.00;;;;;;6100199;23;19905;-68
2022/11/13 23:28:15;;;;;;;;;;;23.40;66.40;;;;;;6125995;23;19932;-69
2022/11/13 23:30:42;;;;;;;;;;;23.30;61.60;;;;;;6126125;23;19909;-68
2022/11/13 23:33:08;;;;;;;;;;;23.40;59.80;;;;;;6125744;23;20240;-68
2022/11/13 23:35:35;;;;;;;;;;;23.40;58.40;;;;;;6125340;23;19905;-69
2022/11/13 23:38:01;;;;;;;;;;;23.40;58.40;;;;;;6100114;23;20256;-68
2022/11/13 23:40:28;;;;;;;;;;;23.50;63.50;;;;;;6100042;23;19909;-69
2022/11/13 23:42:55;;;;;;;;;;;23.50;61.10;;;;;;6099699;23;20346;-68
2022/11/13 23:45:21;;;;;;;;;;;23.50;64.10;;;;;;6125771;23;19905;-68
2022/11/13 23:47:48;;;;;;;;;;;23.60;56.00;;;;;;6125536;23;19905;-71
2022/11/13 23:50:14;;;;;;;;;;;23.70;59.50;;;;;;6125536;23;19905;-69
2022/11/13 23:52:41;;;;;;;;;;;23.70;57.40;;;;;;6099739;23;19979;-68
2022/11/13 23:55:08;;;;;;;;;;;23.70;58.50;;;;;;6125594;23;19932;-69
2022/11/13 23:57:34;;;;;;;;;;;23.70;54.30;;;;;;6075193;23;19909;-70
